createdAt,value
2023-05-10T00:00:31.150Z,13.55
2023-05-10T00:02:59.118Z,13.61
2023-05-10T00:05:28.218Z,13.52
2023-05-10T00:07:56.029Z,13.39
2023-05-10T00:10:23.902Z,13.70
2023-05-10T00:12:51.667Z,13.33
2023-05-10T00:15:19.354Z,13.50
2023-05-10T00:17:47.140Z,13.46
2023-05-10T00:20:18.037Z,13.09
2023-05-10T00:22:47.350Z,13.11
2023-05-10T00:25:18.125Z,13.35
2023-05-10T00:27:45.892Z,13.16
2023-05-10T00:30:14.032Z,13.21
2023-05-10T00:32:41.955Z,13.34
2023-05-10T00:35:10.632Z,13.20
2023-05-10T00:37:38.546Z,13.20
2023-05-10T00:40:09.356Z,13.12
2023-05-10T00:42:37.270Z,13.30
2023-05-10T00:45:06.058Z,13.10
2023-05-10T00:47:34.394Z,13.04
2023-05-10T00:50:02.570Z,13.33
2023-05-10T00:52:31.006Z,13.31
2023-05-10T00:55:00.233Z,13.12
2023-05-10T00:57:29.544Z,12.92
2023-05-10T01:00:00.132Z,13.02
2023-05-10T01:02:28.289Z,12.96
2023-05-10T01:04:57.654Z,13.00
2023-05-10T01:07:25.538Z,13.00
2023-05-10T01:09:53.388Z,13.01
2023-05-10T01:12:21.920Z,12.89
2023-05-10T01:14:51.515Z,12.94
2023-05-10T01:17:19.636Z,12.88
2023-05-10T01:19:47.485Z,12.94
2023-05-10T01:22:34.761Z,12.96
2023-05-10T01:25:26.107Z,12.93
2023-05-10T01:28:29.998Z,12.89
2023-05-10T01:31:30.109Z,12.94
2023-05-10T01:34:04.286Z,13.14
2023-05-10T01:36:34.842Z,13.17
2023-05-10T01:39:10.636Z,12.99
2023-05-10T01:41:45.138Z,13.03
2023-05-10T01:44:19.946Z,13.07
2023-05-10T01:46:54.268Z,13.24
2023-05-10T01:49:25.984Z,13.22
2023-05-10T01:51:56.681Z,13.03
2023-05-10T01:54:26.171Z,12.87
2023-05-10T01:57:00.464Z,13.07
2023-05-10T01:59:31.440Z,13.27
2023-05-10T02:02:02.924Z,13.19
2023-05-10T02:04:34.155Z,13.07
2023-05-10T02:07:02.389Z,12.95
2023-05-10T02:09:32.689Z,12.89
2023-05-10T02:12:03.590Z,13.15
2023-05-10T02:14:34.263Z,13.01
2023-05-10T02:17:04.004Z,12.89
2023-05-10T02:19:34.446Z,12.93
2023-05-10T02:22:03.919Z,12.93
2023-05-10T02:24:32.492Z,13.13
2023-05-10T02:27:04.325Z,13.31
2023-05-10T02:29:34.407Z,13.10
2023-05-10T02:32:03.388Z,13.17
2023-05-10T02:34:34.333Z,13.12
2023-05-10T02:37:04.629Z,13.03
2023-05-10T02:39:34.529Z,13.18
2023-05-10T02:42:03.932Z,13.09
2023-05-10T02:44:33.451Z,13.29
2023-05-10T02:47:01.462Z,13.18
2023-05-10T02:49:30.930Z,13.10
2023-05-10T02:52:05.214Z,13.33
2023-05-10T02:54:36.913Z,13.25
2023-05-10T02:57:08.224Z,13.05
2023-05-10T02:59:36.140Z,13.10
2023-05-10T03:02:04.979Z,13.29
2023-05-10T03:04:33.128Z,13.26
2023-05-10T03:07:03.527Z,13.24
2023-05-10T03:09:32.176Z,13.18
2023-05-10T03:12:06.118Z,13.43
2023-05-10T03:14:47.335Z,13.38
2023-05-10T03:17:24.667Z,13.35
2023-05-10T03:19:56.174Z,13.58
2023-05-10T03:22:32.644Z,13.27
2023-05-10T03:25:04.440Z,13.50
2023-05-10T03:27:34.437Z,13.43
2023-05-10T03:30:04.268Z,13.33
2023-05-10T03:32:35.677Z,13.27
2023-05-10T03:35:08.048Z,13.35
2023-05-10T03:37:37.551Z,13.60
2023-05-10T03:40:06.365Z,13.59
2023-05-10T03:42:38.845Z,13.41
2023-05-10T03:45:09.093Z,13.65
2023-05-10T03:47:36.866Z,13.46
2023-05-10T03:50:05.328Z,13.44
2023-05-10T03:52:34.195Z,13.52
2023-05-10T03:55:04.594Z,13.40
2023-05-10T03:57:35.472Z,13.51
2023-05-10T04:00:03.678Z,13.48
2023-05-10T04:02:43.161Z,13.53
2023-05-10T04:05:16.539Z,13.43
2023-05-10T04:07:45.313Z,13.57
2023-05-10T04:10:14.972Z,13.33
2023-05-10T04:12:42.906Z,13.28
2023-05-10T04:15:11.409Z,13.16
2023-05-10T04:17:39.249Z,13.46
2023-05-10T04:20:10.886Z,13.44
2023-05-10T04:22:39.475Z,13.26
2023-05-10T04:25:08.215Z,13.21
2023-05-10T04:27:37.334Z,13.35
2023-05-10T04:30:05.963Z,13.47
2023-05-10T04:32:33.836Z,13.26
2023-05-10T04:35:03.953Z,13.66
2023-05-10T04:37:31.697Z,13.51
2023-05-10T04:40:01.179Z,13.61
2023-05-10T04:42:28.979Z,13.49
2023-05-10T04:44:58.112Z,13.26
2023-05-10T04:47:25.897Z,13.47
2023-05-10T04:49:53.653Z,13.57
2023-05-10T04:52:21.709Z,13.33
2023-05-10T04:54:49.465Z,13.61
2023-05-10T04:57:17.183Z,13.46
2023-05-10T04:59:44.982Z,13.33
2023-05-10T05:02:14.125Z,13.63
2023-05-10T05:04:42.118Z,13.24
2023-05-10T05:07:09.886Z,13.40
2023-05-10T05:09:40.191Z,13.84
2023-05-10T05:12:08.059Z,13.54
2023-05-10T05:14:35.846Z,13.90
2023-05-10T05:17:03.724Z,14.10
2023-05-10T05:19:34.393Z,13.81
2023-05-10T05:22:02.346Z,14.17
2023-05-10T05:24:30.146Z,14.22
2023-05-10T05:26:57.972Z,14.11
2023-05-10T05:29:25.969Z,13.81
2023-05-10T05:31:55.487Z,13.94
2023-05-10T05:34:23.527Z,14.28
2023-05-10T05:36:52.720Z,14.10
2023-05-10T05:39:20.546Z,13.94
2023-05-10T05:41:48.411Z,14.16
2023-05-10T05:44:16.504Z,14.21
2023-05-10T05:46:44.280Z,14.06
2023-05-10T05:49:12.085Z,13.85
2023-05-10T05:51:40.027Z,13.96
2023-05-10T05:54:09.658Z,14.23
2023-05-10T05:56:38.395Z,14.45
2023-05-10T05:59:06.157Z,14.06
2023-05-10T06:01:33.928Z,13.84
2023-05-10T06:04:01.855Z,14.13
2023-05-10T06:06:29.695Z,14.15
2023-05-10T06:08:57.478Z,14.24
2023-05-10T06:11:27.446Z,14.19
2023-05-10T06:13:55.212Z,14.25
2023-05-10T06:16:23.370Z,14.20
2023-05-10T06:18:51.241Z,14.45
2023-05-10T06:21:19.034Z,14.13
2023-05-10T06:23:46.765Z,13.86
2023-05-10T06:26:14.812Z,13.97
2023-05-10T06:28:43.971Z,14.10
2023-05-10T06:31:12.809Z,14.27
2023-05-10T06:33:40.550Z,13.97
2023-05-10T06:36:08.465Z,13.92
2023-05-10T06:38:36.139Z,14.13
2023-05-10T06:41:04.159Z,14.39
2023-05-10T06:43:32.235Z,14.15
2023-05-10T06:46:01.367Z,14.68
2023-05-10T06:48:29.166Z,14.50
2023-05-10T06:50:56.951Z,14.61
2023-05-10T06:53:24.703Z,14.51
2023-05-10T06:55:52.467Z,14.63
2023-05-10T06:58:20.218Z,14.88
2023-05-10T07:00:48.337Z,14.88
2023-05-10T07:03:17.585Z,14.53
2023-05-10T07:05:45.879Z,14.61
2023-05-10T07:08:14.336Z,14.21
2023-05-10T07:10:42.179Z,14.28
2023-05-10T07:13:10.904Z,14.55
2023-05-10T07:15:38.667Z,15.20
2023-05-10T07:18:07.542Z,14.52
2023-05-10T07:20:36.783Z,14.86
2023-05-10T07:23:04.447Z,14.61
2023-05-10T07:25:32.470Z,14.80
2023-05-10T07:28:00.171Z,15.13
2023-05-10T07:30:28.362Z,15.46
2023-05-10T07:32:56.373Z,14.69
2023-05-10T07:35:24.220Z,15.02
2023-05-10T07:37:53.579Z,15.43
2023-05-10T07:40:21.806Z,14.77
2023-05-10T07:42:49.578Z,14.77
2023-05-10T07:45:17.492Z,14.59
2023-05-10T07:47:45.584Z,14.74
2023-05-10T07:50:13.480Z,14.50
2023-05-10T07:52:41.258Z,14.33
2023-05-10T07:55:11.420Z,14.56
2023-05-10T07:57:40.564Z,15.18
2023-05-10T08:00:09.576Z,14.82
2023-05-10T08:02:46.266Z,14.65
2023-05-10T08:05:14.514Z,14.74
2023-05-10T08:07:43.255Z,14.62
2023-05-10T08:10:13.005Z,14.64
2023-05-10T08:12:42.682Z,14.70
2023-05-10T08:15:11.770Z,14.56
2023-05-10T08:17:39.596Z,14.77
2023-05-10T08:20:08.747Z,15.19
2023-05-10T08:22:36.903Z,15.27
2023-05-10T08:25:04.850Z,15.29
2023-05-10T08:27:34.046Z,15.45
2023-05-10T08:30:01.876Z,15.36
2023-05-10T08:32:29.803Z,15.11
2023-05-10T08:34:57.961Z,15.86
2023-05-10T08:37:25.994Z,15.85
2023-05-10T08:39:53.680Z,15.83
2023-05-10T08:42:28.085Z,16.20
2023-05-10T08:44:59.389Z,15.67
2023-05-10T08:47:27.650Z,16.09
2023-05-10T08:49:56.576Z,15.62
2023-05-10T08:52:28.335Z,15.00
2023-05-10T08:54:56.308Z,15.58
2023-05-10T08:57:24.269Z,15.13
2023-05-10T08:59:52.104Z,14.76
2023-05-10T09:02:23.095Z,14.29
2023-05-10T09:04:51.075Z,14.36
2023-05-10T09:07:19.420Z,14.73
2023-05-10T09:09:48.236Z,14.35
2023-05-10T09:12:16.697Z,14.62
2023-05-10T09:14:46.488Z,14.39
2023-05-10T09:17:15.006Z,14.36
2023-05-10T09:19:44.268Z,14.63
2023-05-10T09:22:12.385Z,14.95
2023-05-10T09:24:43.372Z,14.80
2023-05-10T09:27:13.697Z,15.24
2023-05-10T09:29:42.072Z,16.20
2023-05-10T09:32:09.869Z,15.84
2023-05-10T09:34:40.968Z,15.78
2023-05-10T09:37:10.203Z,15.58
2023-05-10T09:39:39.134Z,15.34
2023-05-10T09:42:08.726Z,15.72
2023-05-10T09:44:37.114Z,16.00
2023-05-10T09:47:05.458Z,15.77
2023-05-10T09:49:34.172Z,15.72
2023-05-10T09:52:04.284Z,15.40
2023-05-10T09:54:34.040Z,16.10
2023-05-10T09:57:02.028Z,15.89
2023-05-10T09:59:31.278Z,16.01
2023-05-10T10:02:02.117Z,15.73
2023-05-10T10:04:30.325Z,15.60
2023-05-10T10:07:02.934Z,16.05
2023-05-10T10:09:31.162Z,16.31
2023-05-10T10:12:01.577Z,16.08
2023-05-10T10:14:30.420Z,16.14
2023-05-10T10:19:29.951Z,15.86
2023-05-10T10:21:57.742Z,16.54
2023-05-10T10:24:25.453Z,16.28
2023-05-10T10:26:58.263Z,16.26
2023-05-10T10:29:38.894Z,16.09
2023-05-10T10:32:21.063Z,15.73
2023-05-10T10:34:49.604Z,16.18
2023-05-10T10:37:17.587Z,16.24
2023-05-10T10:39:45.359Z,16.04
2023-05-10T10:42:13.168Z,15.81
2023-05-10T10:44:42.918Z,15.07
2023-05-10T10:47:30.780Z,14.70
2023-05-10T10:50:06.357Z,14.71
2023-05-10T10:52:35.476Z,14.38
2023-05-10T10:55:07.606Z,14.93
2023-05-10T10:57:46.324Z,15.49
2023-05-10T11:00:29.069Z,15.02
2023-05-10T11:02:59.567Z,14.77
2023-05-10T11:05:39.323Z,15.43
2023-05-10T11:08:22.832Z,15.74
2023-05-10T11:11:11.236Z,16.27
2023-05-10T11:13:43.558Z,16.03
2023-05-10T11:16:20.530Z,16.64
2023-05-10T11:19:03.725Z,15.94
2023-05-10T11:21:32.256Z,16.04
2023-05-10T11:24:01.049Z,17.03
2023-05-10T11:26:34.274Z,16.78
2023-05-10T11:29:04.161Z,16.88
2023-05-10T11:31:33.313Z,16.59
2023-05-10T11:34:02.836Z,16.74
2023-05-10T11:36:37.897Z,16.31
2023-05-10T11:39:06.653Z,16.39
2023-05-10T11:41:34.602Z,15.62
2023-05-10T11:44:02.484Z,16.45
2023-05-10T11:46:30.473Z,16.42
2023-05-10T11:49:05.039Z,16.83
2023-05-10T11:51:36.654Z,16.10
2023-05-10T11:54:08.376Z,16.78
2023-05-10T11:56:36.180Z,15.93
2023-05-10T11:59:03.970Z,15.84
2023-05-10T12:01:32.666Z,16.06
2023-05-10T12:04:03.159Z,16.75
2023-05-10T12:06:32.826Z,16.58
2023-05-10T12:09:01.095Z,16.57
2023-05-10T12:11:30.104Z,16.09
2023-05-10T12:13:58.138Z,15.91
2023-05-10T12:16:27.583Z,16.15
2023-05-10T12:18:58.239Z,16.19
2023-05-10T12:21:28.441Z,16.48
2023-05-10T12:24:01.197Z,16.03
2023-05-10T12:26:30.452Z,15.99
2023-05-10T12:29:14.137Z,16.69
2023-05-10T12:31:52.560Z,16.10
2023-05-10T12:34:27.892Z,16.15
2023-05-10T12:36:57.651Z,15.75
2023-05-10T12:39:25.640Z,16.21
2023-05-10T12:41:53.658Z,16.00
2023-05-10T12:44:21.428Z,16.38
2023-05-10T12:46:49.254Z,16.14
2023-05-10T12:49:17.728Z,16.16
2023-05-10T12:51:45.501Z,16.55
2023-05-10T12:54:14.691Z,16.54
2023-05-10T12:56:43.704Z,16.02
2023-05-10T12:59:11.492Z,15.91
2023-05-10T13:01:39.488Z,15.53
2023-05-10T13:04:07.371Z,15.87
2023-05-10T13:06:36.017Z,15.69
2023-05-10T13:09:04.391Z,15.88
2023-05-10T13:11:36.363Z,16.45
2023-05-10T13:14:05.248Z,16.77
2023-05-10T13:16:33.553Z,16.01
2023-05-10T13:19:01.380Z,15.84
2023-05-10T13:21:29.556Z,15.73
2023-05-10T13:24:06.868Z,16.30
2023-05-10T13:26:37.239Z,15.79
2023-05-10T13:29:05.112Z,15.99
2023-05-10T13:31:33.069Z,16.18
2023-05-10T13:34:00.974Z,16.61
2023-05-10T13:36:28.813Z,16.45
2023-05-10T13:38:56.681Z,16.23
2023-05-10T13:41:24.414Z,16.61
2023-05-10T13:43:53.532Z,16.64
2023-05-10T13:46:21.349Z,16.68
2023-05-10T13:48:49.081Z,16.23
2023-05-10T13:51:16.891Z,16.86
2023-05-10T13:53:44.585Z,17.21
2023-05-10T13:56:12.399Z,16.76
2023-05-10T13:58:40.370Z,17.19
2023-05-10T14:01:09.633Z,16.75
2023-05-10T14:03:38.059Z,16.54
2023-05-10T14:06:08.806Z,16.53
2023-05-10T14:08:37.661Z,16.17
2023-05-10T14:11:05.429Z,16.39
2023-05-10T14:13:33.244Z,16.40
2023-05-10T14:16:01.767Z,16.15
2023-05-10T14:18:30.981Z,16.03
2023-05-10T14:20:58.821Z,16.21
2023-05-10T14:23:26.963Z,16.26
2023-05-10T14:25:55.039Z,16.05
2023-05-10T14:28:23.644Z,16.69
2023-05-10T14:30:51.496Z,17.16
2023-05-10T14:33:19.299Z,16.67
2023-05-10T14:35:48.655Z,16.44
2023-05-10T14:38:16.515Z,17.22
2023-05-10T14:40:44.653Z,16.60
2023-05-10T14:43:12.443Z,16.70
2023-05-10T14:45:40.170Z,16.55
2023-05-10T14:48:12.241Z,16.27
2023-05-10T14:50:40.604Z,16.64
2023-05-10T14:53:09.690Z,16.52
2023-05-10T14:55:37.889Z,16.33
2023-05-10T14:58:05.825Z,16.72
2023-05-10T15:00:35.570Z,17.05
2023-05-10T15:03:04.477Z,16.78
2023-05-10T15:05:32.783Z,17.97
2023-05-10T15:08:01.007Z,17.38
2023-05-10T15:10:30.887Z,17.20
2023-05-10T15:12:59.927Z,17.73
2023-05-10T15:15:30.000Z,16.84
2023-05-10T15:17:57.757Z,17.13
2023-05-10T15:20:25.797Z,18.23
2023-05-10T15:22:53.569Z,17.95
2023-05-10T15:25:21.725Z,17.07
2023-05-10T15:27:50.821Z,17.08
2023-05-10T15:30:18.555Z,17.16
2023-05-10T15:32:46.335Z,16.76
2023-05-10T15:35:15.027Z,16.48
2023-05-10T15:37:42.958Z,16.77
2023-05-10T15:40:11.432Z,16.64
2023-05-10T15:42:39.341Z,16.84
2023-05-10T15:45:09.855Z,16.66
2023-05-10T15:47:40.088Z,16.83
2023-05-10T15:50:08.701Z,16.92
2023-05-10T15:52:37.418Z,16.64
2023-05-10T15:55:12.488Z,16.58
2023-05-10T15:57:43.594Z,16.52
2023-05-10T16:00:14.324Z,16.59
2023-05-10T16:02:42.729Z,16.91
2023-05-10T16:05:11.117Z,17.37
2023-05-10T16:07:39.756Z,17.41
2023-05-10T16:10:12.407Z,17.26
2023-05-10T16:12:40.573Z,17.03
2023-05-10T16:15:09.926Z,16.99
2023-05-10T16:17:39.157Z,16.66
2023-05-10T16:20:08.354Z,17.06
2023-05-10T16:22:36.746Z,17.15
2023-05-10T16:25:05.249Z,17.11
2023-05-10T16:27:33.508Z,16.64
2023-05-10T16:30:01.605Z,16.90
2023-05-10T16:32:29.482Z,16.64
2023-05-10T16:34:59.863Z,16.74
2023-05-10T16:37:27.621Z,16.62
2023-05-10T16:39:55.341Z,16.21
2023-05-10T16:42:23.980Z,16.51
2023-05-10T16:44:58.200Z,16.57
2023-05-10T16:47:26.972Z,16.23
2023-05-10T16:49:54.906Z,16.63
2023-05-10T16:52:24.494Z,16.49
2023-05-10T16:54:52.306Z,16.44
2023-05-10T16:57:20.299Z,16.35
2023-05-10T16:59:48.024Z,16.57
2023-05-10T17:02:16.876Z,16.69
2023-05-10T17:04:44.650Z,16.59
2023-05-10T17:07:13.263Z,16.37
2023-05-10T17:09:42.886Z,16.14
2023-05-10T17:12:10.857Z,16.44
2023-05-10T17:14:38.878Z,16.42
2023-05-10T17:17:06.904Z,16.26
2023-05-10T17:19:36.622Z,16.27
2023-05-10T17:22:04.608Z,16.44
2023-05-10T17:24:32.983Z,16.59
2023-05-10T17:27:03.537Z,16.21
2023-05-10T17:29:32.127Z,16.01
2023-05-10T17:32:00.183Z,16.14
2023-05-10T17:34:27.958Z,16.20
2023-05-10T17:36:55.669Z,16.06
2023-05-10T17:39:23.473Z,15.95
2023-05-10T17:41:51.232Z,15.73
2023-05-10T17:44:20.539Z,16.05
2023-05-10T17:46:48.450Z,15.86
2023-05-10T17:49:16.181Z,15.57
2023-05-10T17:51:46.957Z,15.72
2023-05-10T17:54:17.900Z,15.74
2023-05-10T17:56:45.702Z,15.49
2023-05-10T17:59:13.549Z,15.33
2023-05-10T18:01:42.734Z,15.43
2023-05-10T18:04:10.656Z,15.49
2023-05-10T18:06:39.081Z,15.55
2023-05-10T18:09:07.403Z,15.43
2023-05-10T18:11:36.523Z,15.36
2023-05-10T18:14:04.737Z,15.30
2023-05-10T18:16:32.814Z,15.28
2023-05-10T18:19:02.144Z,15.19
2023-05-10T18:21:29.990Z,15.21
2023-05-10T18:23:57.740Z,15.26
2023-05-10T18:26:26.034Z,15.21
2023-05-10T18:28:53.764Z,15.19
2023-05-10T18:31:21.833Z,15.17
2023-05-10T18:33:49.613Z,15.47
2023-05-10T18:36:18.810Z,15.35
2023-05-10T18:38:46.766Z,15.58
2023-05-10T18:41:14.709Z,15.16
2023-05-10T18:43:43.421Z,15.13
2023-05-10T18:46:12.728Z,14.81
2023-05-10T18:48:40.774Z,14.70
2023-05-10T18:51:08.782Z,14.52
2023-05-10T18:53:38.435Z,14.44
2023-05-10T18:56:07.055Z,14.54
2023-05-10T18:58:35.625Z,14.55
2023-05-10T19:01:03.477Z,14.74
2023-05-10T19:03:31.228Z,14.55
2023-05-10T19:05:59.007Z,14.73
2023-05-10T19:08:26.830Z,14.49
2023-05-10T19:10:56.814Z,14.35
2023-05-10T19:13:25.145Z,14.20
2023-05-10T19:16:06.150Z,14.25
2023-05-10T19:18:35.559Z,14.20
2023-05-10T19:21:07.242Z,14.44
2023-05-10T19:23:36.633Z,14.38
2023-05-10T19:26:06.295Z,14.05
2023-05-10T19:28:35.443Z,14.08
2023-05-10T19:31:03.470Z,14.20
2023-05-10T19:33:31.630Z,14.47
2023-05-10T19:35:59.462Z,15.22
2023-05-10T19:38:27.364Z,15.37
2023-05-10T19:40:58.002Z,15.76
2023-05-10T19:43:27.590Z,15.76
2023-05-10T19:45:55.814Z,15.92
2023-05-10T19:48:23.648Z,15.11
2023-05-10T19:50:51.855Z,14.38
2023-05-10T19:53:20.243Z,13.97
2023-05-10T19:55:48.498Z,13.85
2023-05-10T19:58:16.666Z,13.68
2023-05-10T20:00:46.041Z,13.54
2023-05-10T20:03:13.985Z,13.73
2023-05-10T20:05:41.985Z,13.55
2023-05-10T20:08:09.749Z,13.48
2023-05-10T20:10:37.559Z,13.60
2023-05-10T20:13:05.443Z,13.54
2023-05-10T20:15:33.559Z,13.56
2023-05-10T20:18:03.655Z,13.98
2023-05-10T20:20:31.795Z,13.71
2023-05-10T20:22:59.546Z,13.79
2023-05-10T20:25:27.297Z,13.80
2023-05-10T20:27:55.306Z,13.85
2023-05-10T20:30:23.152Z,13.78
2023-05-10T20:32:51.017Z,13.76
2023-05-10T20:35:20.322Z,13.52
2023-05-10T20:37:48.446Z,13.55
2023-05-10T20:40:16.600Z,13.64
2023-05-10T20:42:44.640Z,13.88
2023-05-10T20:45:12.750Z,13.59
2023-05-10T20:47:40.653Z,13.69
2023-05-10T20:50:09.278Z,13.63
2023-05-10T20:52:38.382Z,13.61
2023-05-10T20:55:07.266Z,13.65
2023-05-10T20:57:35.052Z,13.61
2023-05-10T21:00:05.918Z,13.79
2023-05-10T21:02:33.710Z,13.86
2023-05-10T21:05:01.481Z,14.41
2023-05-10T21:07:29.410Z,15.20
2023-05-10T21:09:58.615Z,15.61
2023-05-10T21:12:26.322Z,16.14
2023-05-10T21:14:54.141Z,16.08
2023-05-10T21:17:24.155Z,16.30
2023-05-10T21:19:51.886Z,16.32
2023-05-10T21:22:19.619Z,16.08
2023-05-10T21:24:47.563Z,15.55
2023-05-10T21:27:16.724Z,16.12
2023-05-10T21:29:44.503Z,16.30
2023-05-10T21:32:13.200Z,16.35
2023-05-10T21:34:40.972Z,16.32
2023-05-10T21:37:08.820Z,16.12
2023-05-10T21:39:36.628Z,15.97
2023-05-10T21:42:04.666Z,15.82
2023-05-10T21:44:33.840Z,14.96
2023-05-10T21:47:01.768Z,13.87
2023-05-10T21:49:29.506Z,13.85
2023-05-10T21:51:57.224Z,13.54
2023-05-10T21:54:26.567Z,13.52
2023-05-10T21:56:56.659Z,13.17
2023-05-10T21:59:24.410Z,12.86
2023-05-10T22:01:53.445Z,12.78
2023-05-10T22:04:21.279Z,12.85
2023-05-10T22:06:49.046Z,12.83
2023-05-10T22:09:16.882Z,12.91
2023-05-10T22:11:44.616Z,12.74
2023-05-10T22:14:12.531Z,12.84
2023-05-10T22:16:40.347Z,12.87
2023-05-10T22:19:09.588Z,13.08
2023-05-10T22:21:37.349Z,13.43
2023-05-10T22:24:05.335Z,13.00
2023-05-10T22:26:33.177Z,13.17
2023-05-10T22:29:00.934Z,13.41
2023-05-10T22:31:29.116Z,13.95
2023-05-10T22:33:56.885Z,14.75
2023-05-10T22:36:26.063Z,14.44
2023-05-10T22:38:56.605Z,15.18
2023-05-10T22:41:24.310Z,15.31
2023-05-10T22:43:52.074Z,15.32
2023-05-10T22:46:19.786Z,15.64
2023-05-10T22:48:48.080Z,15.72
2023-05-10T22:51:15.771Z,15.53
2023-05-10T22:53:49.731Z,15.09
2023-05-10T22:56:17.800Z,15.27
2023-05-10T22:58:45.903Z,15.63
2023-05-10T23:01:14.481Z,13.65
2023-05-10T23:03:42.354Z,14.02
2023-05-10T23:06:10.093Z,13.27
2023-05-10T23:08:38.152Z,12.88
2023-05-10T23:11:07.291Z,12.81
2023-05-10T23:13:34.996Z,12.79
2023-05-10T23:16:06.528Z,12.62
2023-05-10T23:18:34.448Z,12.58
2023-05-10T23:21:02.449Z,12.72
2023-05-10T23:23:30.326Z,12.63
2023-05-10T23:25:58.090Z,12.53
2023-05-10T23:28:27.097Z,12.71
2023-05-10T23:30:59.167Z,12.87
2023-05-10T23:33:27.255Z,12.69
2023-05-10T23:35:55.133Z,12.73
2023-05-10T23:38:22.830Z,12.84
2023-05-10T23:40:50.983Z,12.53
2023-05-10T23:43:19.750Z,12.81
2023-05-10T23:45:55.050Z,12.62
2023-05-10T23:48:22.990Z,12.75
2023-05-10T23:50:53.473Z,12.60
2023-05-10T23:53:21.225Z,13.18
2023-05-10T23:55:48.930Z,13.81
2023-05-10T23:58:16.732Z,13.72
